Buhl, ID (83316)

4:00 AM MDT on October 22, 2014 (GMT -0600)
KIDBUHL3 | Change Station
CLOSE
Current Station
Personal Weather Station
Location: Buhl, ID
Elevation: 3660 ft
Nearby Weather Stations

Elev 3660 ft 42.62 °N, 114.75 °W | Updated 6 seconds ago

Clear
Clear
40.8 °F
Feels Like 41 °F
N
0.0
Wind Variable Wind from NE
Gusts 1.5 mph

Today
High -- | Low -- °F
--% Chance of Precip.
Yesterday
High -- | Low -- °F
Precip. -- in
8:00 AM 6:45 PM
Waning Crescent, 2% visible
Pressure 30.05 in
Visibility 10.0 miles
Clouds Clear
Windchill 41 °F
Dew Point 37 °F
Humidity 86%
Rainfall 0.00 in
Snow Depth Not available.
UV 0 out of 12
Pollen .40 out of 12
PM2.5 Good
Flu Activity Sporadic
METAR KTWF 220953Z AUTO 18010KT 10SM CLR 04/M01 A3011 RMK AO2 SLP176 T00391011

More Conditions Fewer Conditions

Pressure 30.05 in
Visibility 10.0 miles
Clouds Clear
Windchill 41 °F
Dew Point 37 °F
Humidity 86%
Rainfall 0.00 in
Snow Depth Not available.
UV 0 out of 12
Pollen .40 out of 12
PM2.5 Good
Flu Activity Sporadic
METAR KTWF 220953Z AUTO 18010KT 10SM CLR 04/M01 A3011 RMK AO2 SLP176 T00391011

More Conditions Fewer Conditions

10-Day Weather Forecast

Almanac

Astronomy

Oct. 22, 2014 Rise Set
Actual Time 8:00 AM MDT 6:45 PM MDT
Civil Twilight 7:31 AM MDT 7:14 PM MDT
Nautical Twilight 6:58 AM MDT 7:47 PM MDT
Astronomical Twilight 6:26 AM MDT 8:19 PM MDT
Moon 6:44 AM MDT 6:15 PM MDT
Length of Visible Light 11h 42m
Length of Day
10h 45m
Tomorrow will be 2m 42s shorter.
Waning Crescent, 2% of the Moon is Illuminated
Today
Waning Crescent
Oct 23
New
Oct 30
First Quarter
Nov 6
Full
Nov 14
Last Quarter

Today's Extremes

State Highs State Lows

Community

WunderPhotos

Upload Photos

1,763,901 photos uploaded!

Nearby

Air Quality

  Air Quality AQ Index Pollutant
Yesterday Good
PM2.5
Current Good
PM2.5
Wednesday Good
PM2.5

Snow Depth

Station Depth Elevation
Magic Mountain 1 in 6880 ft
Wilson Creek 0 in 7120 ft
Bostetter R.S. 0 in 7500 ft
Camas Creek Divide 0 in 5710 ft
Trinity Mountain 4 in 7770 ft

Earthquake Activity

City Distance Mag. Time & Date
No recent earthquake activity has been reported nearby.
Minimum magnitude displayed is 2.5.

Coastal Water Temperatures

Place Temperature
No Stations Reporting

Nearby Weather Stations